createdAt,value
2022-11-19T00:03:08.076Z,8.27
2022-11-19T00:08:07.654Z,8.60
2022-11-19T00:13:06.869Z,7.97
2022-11-19T00:18:06.278Z,8.07
2022-11-19T00:23:04.447Z,8.20
2022-11-19T00:28:03.944Z,8.57
2022-11-19T00:33:02.083Z,8.73
2022-11-19T00:38:00.245Z,9.90
2022-11-19T00:43:15.673Z,7.50
2022-11-19T00:48:15.240Z,7.50
2022-11-19T00:53:13.364Z,8.50
2022-11-19T00:58:11.498Z,7.37
2022-11-19T01:03:09.681Z,8.00
2022-11-19T01:08:09.190Z,9.30
2022-11-19T01:13:24.989Z,9.63
2022-11-19T01:18:23.284Z,8.37
2022-11-19T01:23:22.827Z,9.53
2022-11-19T01:28:21.215Z,6.90
2022-11-19T01:33:19.487Z,8.33
2022-11-19T01:38:17.634Z,7.60
2022-11-19T01:43:17.234Z,10.00
2022-11-19T01:48:21.351Z,8.63
2022-11-19T01:53:22.004Z,8.03
2022-11-19T01:58:24.063Z,8.13
2022-11-19T02:03:22.302Z,7.73
2022-11-19T02:08:41.569Z,8.20
2022-11-19T02:13:46.061Z,7.47
2022-11-19T02:18:48.557Z,9.20
2022-11-19T02:24:18.737Z,8.50
2022-11-19T02:29:31.473Z,8.03
2022-11-19T02:34:34.677Z,7.80
2022-11-19T02:39:40.874Z,7.43
2022-11-19T02:44:59.764Z,8.10
2022-11-19T02:50:03.838Z,7.70
2022-11-19T02:55:02.094Z,8.73
2022-11-19T03:06:44.189Z,6.80
2022-11-19T03:11:45.805Z,7.13
2022-11-19T03:16:51.289Z,6.83
2022-11-19T03:21:55.567Z,7.97
2022-11-19T03:27:00.051Z,8.17
2022-11-19T03:32:05.532Z,6.77
2022-11-19T03:37:08.490Z,6.07
2022-11-19T03:43:11.515Z,5.30
2022-11-19T03:48:10.359Z,5.47
2022-11-19T03:53:09.969Z,7.00
2022-11-19T03:58:10.857Z,6.23
2022-11-19T04:03:09.075Z,7.33
2022-11-19T04:08:07.215Z,6.80
2022-11-19T04:13:06.703Z,4.77
2022-11-19T04:18:05.230Z,5.30
2022-11-19T04:23:03.383Z,5.47
2022-11-19T04:28:29.982Z,5.27
2022-11-19T04:33:29.554Z,5.77
2022-11-19T04:38:27.657Z,5.60
2022-11-19T04:43:25.793Z,5.33
2022-11-19T04:48:23.923Z,6.40
2022-11-19T04:53:23.459Z,5.40
2022-11-19T04:58:21.674Z,5.60
2022-11-19T05:03:19.853Z,6.83
2022-11-19T05:08:17.991Z,7.23
2022-11-19T05:13:17.474Z,5.77
2022-11-19T05:18:15.608Z,6.57
2022-11-19T05:23:13.796Z,5.90
2022-11-19T05:28:11.930Z,5.80
2022-11-19T05:33:11.497Z,6.60
2022-11-19T05:38:09.581Z,7.00
2022-11-19T05:43:08.652Z,6.87
2022-11-19T05:54:56.356Z,5.60
2022-11-19T05:59:54.511Z,5.93
2022-11-19T06:04:52.638Z,5.93
2022-11-19T06:09:50.807Z,4.10
2022-11-19T06:14:50.341Z,5.03
2022-11-19T06:26:44.341Z,4.87
2022-11-19T06:31:44.189Z,4.37
2022-11-19T06:36:46.428Z,5.30
2022-11-19T06:41:48.692Z,4.10
2022-11-19T06:46:48.328Z,4.27
2022-11-19T06:51:46.462Z,5.93
2022-11-19T06:56:44.589Z,7.10
2022-11-19T07:01:42.877Z,6.70
2022-11-19T07:06:42.403Z,5.17
2022-11-19T07:11:40.596Z,6.13
2022-11-19T07:16:38.798Z,5.13
2022-11-19T07:21:37.404Z,7.00
2022-11-19T07:26:37.721Z,5.07
2022-11-19T07:31:36.159Z,5.83
2022-11-19T07:36:34.367Z,4.40
2022-11-19T07:41:49.859Z,6.20
2022-11-19T07:46:49.442Z,5.30
2022-11-19T07:51:47.593Z,4.90
2022-11-19T07:56:46.097Z,4.83
2022-11-19T08:01:44.362Z,3.97
2022-11-19T08:06:43.961Z,5.47
2022-11-19T08:11:42.145Z,5.70
2022-11-19T08:17:06.637Z,4.53
2022-11-19T08:22:06.153Z,4.77
2022-11-19T08:27:05.435Z,4.97
2022-11-19T08:32:03.938Z,4.60
2022-11-19T08:37:02.062Z,4.90
2022-11-19T08:42:18.906Z,4.60
2022-11-19T08:47:17.156Z,6.50
2022-11-19T08:52:15.621Z,6.03
2022-11-19T08:57:15.170Z,6.40
2022-11-19T09:02:13.358Z,6.40
2022-11-19T09:07:11.522Z,5.40
2022-11-19T09:12:10.290Z,6.07
2022-11-19T09:23:57.650Z,5.17
2022-11-19T09:28:55.773Z,6.00
2022-11-19T09:33:54.980Z,6.10
2022-11-19T09:38:58.910Z,6.13
2022-11-19T09:44:05.492Z,5.50
2022-11-19T09:49:10.055Z,5.63
2022-11-19T09:54:16.499Z,5.40
2022-11-19T09:59:26.028Z,5.50
2022-11-19T10:04:26.063Z,5.27
2022-11-19T10:09:37.101Z,5.80
2022-11-19T10:15:01.387Z,7.40
2022-11-19T10:20:14.922Z,6.07
2022-11-19T10:25:18.642Z,4.60
2022-11-19T10:30:19.563Z,4.50
2022-11-19T10:35:22.498Z,5.90
2022-11-19T10:40:24.634Z,5.97
2022-11-19T10:45:27.116Z,5.30
2022-11-19T10:50:26.858Z,6.10
2022-11-19T10:55:30.149Z,7.70
2022-11-19T11:00:29.144Z,7.10
2022-11-19T11:05:27.350Z,4.80
2022-11-19T11:17:25.690Z,6.30
2022-11-19T11:22:24.512Z,5.10
2022-11-19T11:27:25.582Z,3.90
2022-11-19T11:32:32.902Z,6.13
2022-11-19T11:37:31.803Z,6.33
2022-11-19T11:43:10.181Z,5.27
2022-11-19T11:48:19.185Z,6.53
2022-11-19T11:53:28.424Z,4.67
2022-11-19T11:58:30.663Z,5.20
2022-11-19T12:03:34.502Z,5.20
2022-11-19T12:08:47.876Z,3.63
2022-11-19T12:13:59.958Z,3.63
2022-11-19T12:19:22.074Z,3.70
2022-11-19T12:24:35.290Z,4.07
2022-11-19T12:29:42.848Z,4.80
2022-11-19T12:35:01.445Z,3.30
2022-11-19T12:40:11.569Z,4.10
2022-11-19T12:45:18.424Z,5.10
2022-11-19T12:50:26.481Z,5.20
2022-11-19T12:55:33.257Z,4.37
2022-11-19T13:00:34.677Z,4.10
2022-11-19T13:05:46.046Z,4.83
2022-11-19T13:10:47.842Z,4.20
2022-11-19T13:15:49.296Z,4.57
2022-11-19T13:20:52.992Z,4.13
2022-11-19T13:25:59.325Z,3.90
2022-11-19T13:31:02.544Z,3.97
2022-11-19T13:36:07.176Z,4.27
2022-11-19T13:41:14.093Z,4.50
2022-11-19T13:46:23.515Z,3.50
2022-11-19T13:51:29.185Z,4.73
2022-11-19T13:56:40.343Z,4.17
2022-11-19T14:01:52.262Z,4.27
2022-11-19T14:07:28.096Z,3.10
2022-11-19T14:12:47.483Z,5.23
2022-11-19T14:18:09.524Z,3.80
2022-11-19T14:23:27.510Z,4.93
2022-11-19T14:28:46.525Z,3.60
2022-11-19T14:33:59.969Z,3.83
2022-11-19T14:39:02.154Z,3.87
2022-11-19T14:44:10.808Z,2.33
2022-11-19T14:49:37.979Z,3.30
2022-11-19T14:54:40.756Z,3.20
2022-11-19T14:59:39.976Z,3.10
2022-11-19T15:04:40.236Z,2.60
2022-11-19T15:10:05.354Z,2.80
2022-11-19T15:15:32.351Z,2.73
2022-11-19T15:20:35.829Z,2.40
2022-11-19T15:25:52.465Z,3.10
2022-11-19T15:31:29.325Z,5.10
2022-11-19T15:37:05.065Z,3.43
2022-11-19T15:43:11.550Z,3.47
2022-11-19T15:48:16.887Z,3.40
2022-11-19T15:53:18.419Z,3.40
2022-11-19T15:58:20.719Z,4.63
2022-11-19T16:10:23.360Z,3.37
2022-11-19T16:15:42.230Z,4.07
2022-11-19T16:20:40.457Z,3.43
2022-11-19T16:25:42.171Z,3.07
2022-11-19T16:37:34.793Z,2.40
2022-11-19T16:42:35.743Z,2.90
2022-11-19T16:48:24.039Z,2.90
2022-11-19T17:00:20.335Z,3.53
2022-11-19T17:05:19.942Z,3.20
2022-11-19T17:10:30.480Z,3.47
2022-11-19T17:15:38.673Z,3.80
2022-11-19T17:21:01.692Z,3.10
2022-11-19T17:26:01.238Z,4.07
2022-11-19T17:31:01.600Z,2.93
2022-11-19T17:35:59.779Z,3.20
2022-11-19T17:41:00.391Z,3.17
2022-11-19T17:45:59.881Z,4.37
2022-11-19T17:50:58.548Z,4.30
2022-11-19T17:55:57.901Z,3.50
2022-11-19T18:00:56.101Z,4.90
2022-11-19T18:05:56.187Z,5.80
2022-11-19T18:10:54.393Z,4.50
2022-11-19T18:22:48.236Z,5.00
2022-11-19T18:27:46.860Z,6.47
2022-11-19T18:32:45.294Z,6.53
2022-11-19T18:37:43.736Z,5.80
2022-11-19T18:43:49.048Z,6.67
2022-11-19T18:48:48.666Z,6.30
2022-11-19T18:53:47.037Z,4.50
2022-11-19T18:58:45.335Z,5.50
2022-11-19T19:03:43.687Z,5.40
2022-11-19T19:08:43.224Z,4.97
2022-11-19T19:13:41.440Z,5.07
2022-11-19T19:18:39.745Z,4.90
2022-11-19T19:23:38.012Z,4.33
2022-11-19T19:28:38.059Z,4.23
2022-11-19T19:33:36.722Z,3.90
2022-11-19T19:38:35.167Z,5.20
2022-11-19T19:43:33.534Z,6.20
2022-11-19T19:48:33.035Z,5.40
2022-11-19T19:53:31.241Z,5.73
2022-11-19T19:58:29.455Z,5.50
2022-11-19T20:03:27.616Z,4.63
2022-11-19T20:08:27.575Z,5.43
2022-11-19T20:13:28.544Z,5.63
2022-11-19T20:18:27.692Z,4.50
2022-11-19T20:23:32.170Z,5.67
2022-11-19T20:28:31.499Z,6.13
2022-11-19T20:33:29.681Z,5.57
2022-11-19T20:38:28.054Z,6.10
2022-11-19T20:43:50.179Z,6.80
2022-11-19T20:48:50.956Z,5.93
2022-11-19T20:53:49.121Z,6.67
2022-11-19T20:58:48.686Z,6.47
2022-11-19T21:03:46.935Z,6.43
2022-11-19T21:08:45.105Z,5.50
2022-11-19T21:13:44.356Z,5.40
2022-11-19T21:18:44.573Z,5.50
2022-11-19T21:23:43.129Z,5.53
2022-11-19T21:28:41.319Z,4.77
2022-11-19T21:33:39.560Z,4.70
2022-11-19T21:38:39.435Z,5.00
2022-11-19T21:43:37.841Z,5.00
2022-11-19T21:48:38.968Z,4.73
2022-11-19T21:53:38.606Z,5.30
2022-11-19T21:58:36.754Z,4.40
2022-11-19T22:03:36.699Z,4.93
2022-11-19T22:08:38.666Z,4.70
2022-11-19T22:13:38.240Z,6.63
2022-11-19T22:18:36.445Z,4.00
2022-11-19T22:23:34.656Z,4.77
2022-11-19T22:28:32.821Z,5.00
2022-11-19T22:33:33.654Z,3.87
2022-11-19T22:38:31.824Z,4.40
2022-11-19T22:43:31.804Z,4.60
2022-11-19T22:48:30.324Z,5.00
2022-11-19T22:53:29.819Z,4.10
2022-11-19T23:05:23.144Z,5.83
2022-11-19T23:10:22.658Z,4.50
2022-11-19T23:15:20.859Z,6.20
2022-11-19T23:20:19.102Z,5.73
2022-11-19T23:25:17.393Z,3.70
2022-11-19T23:30:17.637Z,4.80
2022-11-19T23:35:15.907Z,6.33
2022-11-19T23:40:15.279Z,4.70
2022-11-19T23:45:13.443Z,5.33
2022-11-19T23:51:13.332Z,5.90
2022-11-19T23:56:14.380Z,4.90
